Pine Valley, New York
Current Conditions -  °F | °C
As of 3:53 AM on Saturday 29 Nov 2014 (Local Time) from KELM Reporting Station
Clear Clear  
Wind Chill: 13°   Ceiling: Unl
Heat Index: 13°   Visibility: 10mi
Dew Point: 10°   Wind: 3mph
Humidity: 88%   Direction: 30°NNE
Pressure: 30.21"   Gusts: NA
Location:  42.23°N, 76.85°W
Report Text: KELM 290853Z AUTO 03003KT 10SM CLR M11/M12 A3021 RMK AO2 SLP247 T11061122 58003
Loading
Personal Weather Stations






























Interactive Weather Map New forecast layout! Learn more

10-Day Weather Forecast

Advertisements
Track Severe Weather on mobile